createdAt,value
2023-03-16T00:00:43.100Z,4.95
2023-03-16T00:03:11.183Z,5.07
2023-03-16T00:05:38.242Z,5.00
2023-03-16T00:08:05.369Z,5.28
2023-03-16T00:10:32.608Z,5.13
2023-03-16T00:12:59.403Z,5.40
2023-03-16T00:15:26.104Z,5.38
2023-03-16T00:17:52.864Z,5.35
2023-03-16T00:20:19.675Z,5.28
2023-03-16T00:22:46.628Z,5.68
2023-03-16T00:25:14.567Z,5.38
2023-03-16T00:27:41.567Z,5.03
2023-03-16T00:30:08.882Z,5.80
2023-03-16T00:32:37.136Z,5.10
2023-03-16T00:35:05.049Z,5.00
2023-03-16T00:37:32.979Z,5.43
2023-03-16T00:40:00.183Z,4.90
2023-03-16T00:42:28.115Z,6.03
2023-03-16T00:44:57.852Z,5.22
2023-03-16T00:47:25.607Z,5.72
2023-03-16T00:49:52.419Z,5.70
2023-03-16T00:52:19.224Z,5.50
2023-03-16T00:54:46.776Z,5.82
2023-03-16T00:57:14.430Z,5.45
2023-03-16T00:59:41.539Z,5.72
2023-03-16T01:02:09.685Z,5.80
2023-03-16T01:04:36.818Z,5.32
2023-03-16T01:07:04.585Z,4.97
2023-03-16T01:09:31.785Z,5.32
2023-03-16T01:11:58.519Z,5.10
2023-03-16T01:14:25.265Z,5.47
2023-03-16T01:16:52.226Z,5.03
2023-03-16T01:19:19.077Z,5.18
2023-03-16T01:21:45.996Z,4.60
2023-03-16T01:24:12.930Z,5.00
2023-03-16T01:26:41.258Z,4.82
2023-03-16T01:29:08.097Z,5.32
2023-03-16T01:31:34.956Z,5.00
2023-03-16T01:34:04.146Z,4.90
2023-03-16T01:36:34.644Z,5.03
2023-03-16T01:39:03.621Z,4.90
2023-03-16T01:41:36.297Z,4.85
2023-03-16T01:44:03.186Z,5.05
2023-03-16T01:46:30.580Z,4.93
2023-03-16T01:49:01.786Z,4.68
2023-03-16T01:51:44.187Z,4.90
2023-03-16T01:54:19.162Z,4.85
2023-03-16T01:56:52.725Z,4.95
2023-03-16T01:59:21.244Z,4.35
2023-03-16T02:01:49.062Z,4.88
2023-03-16T02:04:19.676Z,4.95
2023-03-16T02:06:47.353Z,4.68
2023-03-16T02:09:15.263Z,4.65
2023-03-16T02:11:42.026Z,4.63
2023-03-16T02:14:12.632Z,5.03
2023-03-16T02:16:41.208Z,5.22
2023-03-16T02:19:12.120Z,4.25
2023-03-16T02:21:46.869Z,5.03
2023-03-16T02:24:13.915Z,4.38
2023-03-16T02:26:47.701Z,4.85
2023-03-16T02:29:36.775Z,4.82
2023-03-16T02:32:05.567Z,5.68
2023-03-16T02:34:32.882Z,4.53
2023-03-16T02:37:00.931Z,5.07
2023-03-16T02:39:28.268Z,4.88
2023-03-16T02:41:55.169Z,4.53
2023-03-16T02:44:24.528Z,4.57
2023-03-16T02:46:58.270Z,4.53
2023-03-16T02:49:45.134Z,4.43
2023-03-16T02:52:12.676Z,4.80
2023-03-16T02:54:39.737Z,4.40
2023-03-16T02:57:06.659Z,4.25
2023-03-16T02:59:34.905Z,4.47
2023-03-16T03:02:01.987Z,4.15
2023-03-16T03:04:28.888Z,4.65
2023-03-16T03:06:55.727Z,4.85
2023-03-16T03:09:22.571Z,4.65
2023-03-16T03:11:53.318Z,4.93
2023-03-16T03:14:21.181Z,4.85
2023-03-16T03:16:49.567Z,4.15
2023-03-16T03:19:16.522Z,4.60
2023-03-16T03:21:43.466Z,4.47
2023-03-16T03:24:10.898Z,4.13
2023-03-16T03:26:40.827Z,4.70
2023-03-16T03:29:14.270Z,4.60
2023-03-16T03:31:41.314Z,4.43
2023-03-16T03:34:08.197Z,4.80
2023-03-16T03:36:36.143Z,3.92
2023-03-16T03:39:07.750Z,4.40
2023-03-16T03:41:36.148Z,3.80
2023-03-16T03:44:04.472Z,3.58
2023-03-16T03:46:31.827Z,3.90
2023-03-16T03:49:03.654Z,3.88
2023-03-16T03:51:32.782Z,3.75
2023-03-16T03:54:03.287Z,3.45
2023-03-16T03:56:44.735Z,4.13
2023-03-16T03:59:15.392Z,3.60
2023-03-16T04:02:01.138Z,3.65
2023-03-16T04:04:38.085Z,3.47
2023-03-16T04:07:05.395Z,3.45
2023-03-16T04:09:34.960Z,3.53
2023-03-16T04:12:03.502Z,3.20
2023-03-16T04:14:30.941Z,3.28
2023-03-16T04:16:59.811Z,3.45
2023-03-16T04:19:27.080Z,3.38
2023-03-16T04:21:55.262Z,3.00
2023-03-16T04:24:22.517Z,2.67
2023-03-16T04:26:49.364Z,2.75
2023-03-16T04:29:19.414Z,2.88
2023-03-16T04:31:47.005Z,3.22
2023-03-16T04:34:14.134Z,2.33
2023-03-16T04:36:42.095Z,3.25
2023-03-16T04:39:10.640Z,2.65
2023-03-16T04:41:37.565Z,3.10
2023-03-16T04:44:11.485Z,3.35
2023-03-16T04:46:38.432Z,3.67
2023-03-16T04:49:09.837Z,3.95
2023-03-16T04:51:38.094Z,3.53
2023-03-16T04:54:08.383Z,3.67
2023-03-16T04:56:41.568Z,4.07
2023-03-16T04:59:27.794Z,4.20
2023-03-16T05:02:04.264Z,4.57
2023-03-16T05:04:31.504Z,3.80
2023-03-16T05:06:58.221Z,3.95
2023-03-16T05:09:29.685Z,4.22
2023-03-16T05:11:56.460Z,4.07
2023-03-16T05:14:23.690Z,4.43
2023-03-16T05:17:05.954Z,4.20
2023-03-16T05:19:32.877Z,4.40
2023-03-16T05:21:59.820Z,4.53
2023-03-16T05:24:26.992Z,4.15
2023-03-16T05:26:54.199Z,4.72
2023-03-16T05:29:22.284Z,4.18
2023-03-16T05:31:50.004Z,4.18
2023-03-16T05:34:21.043Z,4.75
2023-03-16T05:36:47.827Z,4.68
2023-03-16T05:39:16.569Z,5.03
2023-03-16T05:41:47.167Z,5.15
2023-03-16T05:44:27.056Z,4.25
2023-03-16T05:47:11.380Z,4.60
2023-03-16T05:49:43.301Z,4.68
2023-03-16T05:52:20.010Z,4.40
2023-03-16T05:54:46.957Z,4.05
2023-03-16T05:57:14.224Z,4.05
2023-03-16T05:59:44.010Z,4.43
2023-03-16T06:02:12.305Z,4.32
2023-03-16T06:04:39.916Z,4.30
2023-03-16T06:07:06.852Z,3.67
2023-03-16T06:09:34.544Z,4.20
2023-03-16T06:12:06.806Z,4.07
2023-03-16T06:14:33.846Z,3.78
2023-03-16T06:17:00.926Z,3.78
2023-03-16T06:19:28.779Z,3.83
2023-03-16T06:21:59.692Z,3.30
2023-03-16T06:24:27.903Z,3.95
2023-03-16T06:26:54.817Z,3.67
2023-03-16T06:29:25.847Z,3.75
2023-03-16T06:31:52.884Z,3.50
2023-03-16T06:34:27.168Z,4.05
2023-03-16T06:36:57.977Z,3.25
2023-03-16T06:39:25.318Z,3.90
2023-03-16T06:41:52.494Z,3.70
2023-03-16T06:44:21.212Z,3.50
2023-03-16T06:47:01.486Z,3.53
2023-03-16T06:49:28.331Z,3.28
2023-03-16T06:51:56.734Z,2.88
2023-03-16T06:54:25.046Z,2.85
2023-03-16T06:56:52.615Z,3.05
2023-03-16T06:59:19.450Z,3.08
2023-03-16T07:01:46.348Z,3.28
2023-03-16T07:04:13.427Z,3.47
2023-03-16T07:06:41.505Z,3.40
2023-03-16T07:09:08.742Z,3.45
2023-03-16T07:11:36.019Z,3.47
2023-03-16T07:14:02.935Z,3.20
2023-03-16T07:16:32.325Z,3.25
2023-03-16T07:19:02.218Z,3.50
2023-03-16T07:21:28.986Z,2.95
2023-03-16T07:23:56.017Z,3.00
2023-03-16T07:26:28.139Z,3.53
2023-03-16T07:28:58.813Z,2.70
2023-03-16T07:31:25.785Z,3.10
2023-03-16T07:33:54.546Z,2.85
2023-03-16T07:38:59.833Z,2.72
2023-03-16T07:41:26.786Z,2.70
2023-03-16T07:43:53.629Z,2.28
2023-03-16T07:46:24.628Z,2.65
2023-03-16T07:48:51.435Z,2.55
2023-03-16T07:51:18.303Z,2.38
2023-03-16T07:53:48.603Z,2.60
2023-03-16T07:56:19.882Z,2.40
2023-03-16T07:58:51.537Z,3.03
2023-03-16T08:01:18.273Z,2.90
2023-03-16T08:03:45.209Z,2.50
2023-03-16T08:06:12.323Z,2.88
2023-03-16T08:08:39.274Z,2.60
2023-03-16T08:11:07.028Z,2.78
2023-03-16T08:13:54.110Z,2.20
2023-03-16T08:16:24.310Z,2.45
2023-03-16T08:18:52.081Z,2.50
2023-03-16T08:21:20.266Z,2.70
2023-03-16T08:23:50.525Z,2.63
2023-03-16T08:26:19.622Z,2.65
2023-03-16T08:28:47.623Z,2.30
2023-03-16T08:31:15.128Z,2.38
2023-03-16T08:33:57.366Z,2.63
2023-03-16T08:36:28.404Z,2.58
2023-03-16T08:39:06.557Z,2.10
2023-03-16T08:41:40.960Z,2.40
2023-03-16T08:44:16.051Z,2.20
2023-03-16T08:46:43.392Z,2.72
2023-03-16T08:49:11.049Z,2.33
2023-03-16T08:51:38.115Z,2.30
2023-03-16T08:54:07.770Z,2.15
2023-03-16T08:56:34.520Z,2.08
2023-03-16T08:59:01.374Z,2.53
2023-03-16T09:01:29.713Z,2.63
2023-03-16T09:03:56.495Z,2.53
2023-03-16T09:06:23.551Z,3.10
2023-03-16T09:08:50.414Z,2.50
2023-03-16T09:11:18.841Z,2.90
2023-03-16T09:13:46.213Z,2.85
2023-03-16T09:16:13.727Z,3.17
2023-03-16T09:18:41.230Z,2.97
2023-03-16T09:21:09.173Z,3.20
2023-03-16T09:23:37.593Z,2.60
2023-03-16T09:26:05.523Z,2.35
2023-03-16T09:28:32.872Z,2.42
2023-03-16T09:31:00.366Z,1.95
2023-03-16T09:33:28.740Z,2.10
2023-03-16T09:35:57.483Z,2.08
2023-03-16T09:38:26.578Z,1.98
2023-03-16T09:41:01.810Z,2.20
2023-03-16T09:43:37.875Z,1.30
2023-03-16T09:46:17.244Z,1.88
2023-03-16T09:48:45.182Z,1.67
2023-03-16T09:51:27.888Z,2.25
2023-03-16T09:53:58.229Z,2.22
2023-03-16T09:56:35.349Z,1.42
2023-03-16T09:59:04.317Z,1.48
2023-03-16T10:01:35.804Z,1.60
2023-03-16T10:04:34.728Z,1.50
2023-03-16T10:07:09.640Z,1.67
2023-03-16T10:09:41.589Z,1.80
2023-03-16T10:12:09.917Z,1.70
2023-03-16T10:14:51.679Z,1.60
2023-03-16T10:17:21.544Z,1.20
2023-03-16T10:19:52.843Z,1.40
2023-03-16T10:22:26.405Z,1.40
2023-03-16T10:25:13.117Z,1.50
2023-03-16T10:27:46.395Z,1.67
2023-03-16T10:30:25.990Z,1.58
2023-03-16T10:32:52.938Z,1.58
2023-03-16T10:35:38.560Z,1.30
2023-03-16T10:38:08.242Z,1.20
2023-03-16T10:40:38.618Z,1.05
2023-03-16T10:43:13.289Z,1.45
2023-03-16T10:45:42.676Z,1.30
2023-03-16T10:48:14.603Z,1.30
2023-03-16T10:50:48.386Z,1.02
2023-03-16T10:53:17.759Z,1.35
2023-03-16T10:55:44.909Z,1.50
2023-03-16T10:58:22.439Z,1.42
2023-03-16T11:00:49.270Z,1.50
2023-03-16T11:03:26.405Z,1.33
2023-03-16T11:05:57.530Z,1.25
2023-03-16T11:08:25.949Z,1.00
2023-03-16T11:10:59.800Z,1.77
2023-03-16T11:13:34.532Z,1.35
2023-03-16T11:16:21.654Z,1.50
2023-03-16T11:18:50.695Z,1.42
2023-03-16T11:21:36.360Z,1.20
2023-03-16T11:24:04.335Z,1.60
2023-03-16T11:26:35.078Z,1.20
2023-03-16T11:29:28.169Z,1.30
2023-03-16T11:31:56.405Z,1.25
2023-03-16T11:34:27.455Z,0.85
2023-03-16T11:37:01.118Z,1.42
2023-03-16T11:39:32.970Z,1.25
2023-03-16T11:42:04.258Z,1.55
2023-03-16T11:44:34.233Z,1.10
2023-03-16T11:47:21.320Z,1.10
2023-03-16T11:49:53.614Z,1.27
2023-03-16T11:52:42.696Z,1.25
2023-03-16T11:55:19.748Z,1.15
2023-03-16T11:58:05.860Z,1.23
2023-03-16T12:00:47.849Z,1.45
2023-03-16T12:03:14.841Z,1.05
2023-03-16T12:05:53.901Z,1.10
2023-03-16T12:08:39.485Z,1.10
2023-03-16T12:11:13.030Z,1.13
2023-03-16T12:13:40.290Z,1.13
2023-03-16T12:16:16.214Z,1.02
2023-03-16T12:18:45.314Z,1.05
2023-03-16T12:21:23.436Z,1.17
2023-03-16T12:23:53.498Z,1.25
2023-03-16T12:26:22.377Z,0.98
2023-03-16T12:28:49.952Z,1.00
2023-03-16T12:31:19.927Z,0.80
2023-03-16T12:33:50.762Z,0.98
2023-03-16T12:36:23.849Z,0.82
2023-03-16T12:38:58.451Z,0.70
2023-03-16T12:41:43.976Z,0.60
2023-03-16T12:44:14.284Z,0.68
2023-03-16T12:46:56.705Z,0.80
2023-03-16T12:49:24.989Z,0.95
2023-03-16T12:52:04.636Z,0.80
2023-03-16T12:54:31.681Z,0.80
2023-03-16T12:57:01.510Z,0.85
2023-03-16T12:59:36.643Z,0.82
2023-03-16T13:02:06.783Z,1.08
2023-03-16T13:04:35.481Z,0.90
2023-03-16T13:07:05.146Z,0.93
2023-03-16T13:09:35.652Z,0.80
2023-03-16T13:12:05.476Z,0.75
2023-03-16T13:14:38.531Z,1.50
2023-03-16T13:17:17.959Z,0.82
2023-03-16T13:19:47.964Z,0.85
2023-03-16T13:22:42.061Z,0.80
2023-03-16T13:25:14.705Z,0.80
2023-03-16T13:27:44.638Z,0.70
2023-03-16T13:30:22.529Z,0.85
2023-03-16T13:32:53.269Z,1.00
2023-03-16T13:35:21.479Z,0.77
2023-03-16T13:37:49.347Z,0.90
2023-03-16T13:40:20.356Z,1.08
2023-03-16T13:42:49.823Z,0.70
2023-03-16T13:45:19.882Z,0.80
2023-03-16T13:47:48.262Z,0.82
2023-03-16T13:50:16.113Z,0.60
2023-03-16T13:52:44.210Z,0.90
2023-03-16T13:55:17.838Z,0.80
2023-03-16T13:57:45.464Z,0.90
2023-03-16T14:00:18.156Z,0.70
2023-03-16T14:02:45.787Z,0.95
2023-03-16T14:05:17.470Z,1.00
2023-03-16T14:07:46.913Z,0.68
2023-03-16T14:10:17.006Z,0.88
2023-03-16T14:12:53.255Z,0.80
2023-03-16T14:15:20.265Z,1.15
2023-03-16T14:17:47.040Z,0.98
2023-03-16T14:20:19.468Z,0.85
2023-03-16T14:22:46.339Z,0.80
2023-03-16T14:25:34.582Z,0.80
2023-03-16T14:28:02.392Z,0.95
2023-03-16T14:30:30.433Z,0.80
2023-03-16T14:33:21.798Z,0.80
2023-03-16T14:35:53.940Z,1.10
2023-03-16T14:38:27.267Z,0.80
2023-03-16T14:40:56.062Z,0.85
2023-03-16T14:43:30.969Z,1.15
2023-03-16T14:45:57.851Z,0.67
2023-03-16T14:48:25.144Z,0.77
2023-03-16T14:50:56.360Z,0.70
2023-03-16T14:53:24.644Z,0.73
2023-03-16T14:55:52.148Z,0.80
2023-03-16T14:58:19.059Z,0.93
2023-03-16T15:00:53.205Z,1.00
2023-03-16T15:03:22.383Z,0.80
2023-03-16T15:05:50.413Z,0.80
2023-03-16T15:08:26.678Z,0.70
2023-03-16T15:10:54.380Z,0.60
2023-03-16T15:13:47.048Z,0.85
2023-03-16T15:16:14.402Z,0.80
2023-03-16T15:18:41.879Z,0.70
2023-03-16T15:21:20.611Z,0.60
2023-03-16T15:23:47.630Z,0.80
2023-03-16T15:26:15.875Z,0.65
2023-03-16T15:28:42.952Z,0.80
2023-03-16T15:31:13.881Z,0.80
2023-03-16T15:33:41.510Z,0.90
2023-03-16T15:36:15.713Z,0.75
2023-03-16T15:38:46.565Z,0.80
2023-03-16T15:41:13.695Z,0.70
2023-03-16T15:43:40.929Z,0.60
2023-03-16T15:46:07.764Z,0.63
2023-03-16T15:48:34.581Z,0.57
2023-03-16T15:51:04.266Z,0.73
2023-03-16T15:53:39.803Z,0.75
2023-03-16T15:56:09.000Z,1.20
2023-03-16T15:58:36.477Z,0.88
2023-03-16T16:01:05.092Z,0.65
2023-03-16T16:03:32.151Z,0.50
2023-03-16T16:05:59.015Z,1.00
2023-03-16T16:08:25.843Z,0.90
2023-03-16T16:10:53.715Z,0.93
2023-03-16T16:13:26.787Z,0.75
2023-03-16T16:15:58.584Z,0.60
2023-03-16T16:18:26.556Z,0.90
2023-03-16T16:20:53.868Z,0.70
2023-03-16T16:23:21.120Z,0.60
2023-03-16T16:25:48.072Z,0.60
2023-03-16T16:28:22.804Z,0.57
2023-03-16T16:30:49.832Z,0.60
2023-03-16T16:33:20.826Z,0.77
2023-03-16T16:35:47.763Z,0.60
2023-03-16T16:38:14.524Z,0.70
2023-03-16T16:40:46.339Z,0.80
2023-03-16T16:43:32.569Z,0.82
2023-03-16T16:46:04.855Z,0.95
2023-03-16T16:48:33.710Z,0.75
2023-03-16T16:51:01.443Z,0.80
2023-03-16T16:53:28.838Z,0.63
2023-03-16T16:55:56.308Z,0.80
2023-03-16T16:58:24.791Z,0.70
2023-03-16T17:00:53.795Z,0.70
2023-03-16T17:03:25.010Z,0.73
2023-03-16T17:05:52.861Z,0.75
2023-03-16T17:08:20.127Z,0.68
2023-03-16T17:10:48.099Z,0.70
2023-03-16T17:13:26.567Z,0.80
2023-03-16T17:15:55.053Z,0.63
2023-03-16T17:18:22.214Z,0.80
2023-03-16T17:20:50.696Z,0.80
2023-03-16T17:23:20.736Z,0.70
2023-03-16T17:25:47.807Z,0.90
2023-03-16T17:28:16.815Z,0.85
2023-03-16T17:30:45.203Z,0.90
2023-03-16T17:33:13.250Z,2.17
2023-03-16T17:35:41.521Z,1.17
2023-03-16T17:38:22.480Z,0.60
2023-03-16T17:40:49.963Z,0.90
2023-03-16T17:43:18.172Z,1.15
2023-03-16T17:45:46.216Z,1.20
2023-03-16T17:48:14.631Z,1.10
2023-03-16T17:50:41.552Z,0.90
2023-03-16T17:53:08.697Z,1.40
2023-03-16T17:55:35.798Z,1.67
2023-03-16T17:58:02.859Z,1.17
2023-03-16T18:00:34.908Z,1.13
2023-03-16T18:03:03.487Z,1.35
2023-03-16T18:05:32.040Z,1.50
2023-03-16T18:08:01.106Z,1.65
2023-03-16T18:10:29.315Z,1.63
2023-03-16T18:12:58.216Z,1.10
2023-03-16T18:15:27.178Z,1.45
2023-03-16T18:17:53.998Z,1.00
2023-03-16T18:20:30.585Z,1.02
2023-03-16T18:22:58.912Z,1.25
2023-03-16T18:25:39.151Z,1.23
2023-03-16T18:28:07.648Z,0.85
2023-03-16T18:30:35.502Z,0.85
2023-03-16T18:33:03.229Z,2.70
2023-03-16T18:35:30.521Z,2.50
2023-03-16T18:37:57.602Z,1.77
2023-03-16T18:40:26.107Z,3.67
2023-03-16T18:42:54.483Z,3.22
2023-03-16T18:45:21.569Z,2.28
2023-03-16T18:47:52.454Z,2.53
2023-03-16T18:50:24.263Z,2.22
2023-03-16T18:52:52.456Z,1.98
2023-03-16T18:55:21.155Z,2.22
2023-03-16T18:57:51.550Z,2.65
2023-03-16T19:00:20.786Z,2.10
2023-03-16T19:02:50.823Z,2.28
2023-03-16T19:05:18.932Z,2.60
2023-03-16T19:07:46.932Z,2.10
2023-03-16T19:10:22.647Z,2.67
2023-03-16T19:12:49.879Z,2.05
2023-03-16T19:15:18.684Z,2.47
2023-03-16T19:17:46.424Z,1.50
2023-03-16T19:20:14.048Z,1.10
2023-03-16T19:22:41.979Z,0.90
2023-03-16T19:25:11.096Z,1.25
2023-03-16T19:27:39.200Z,1.10
2023-03-16T19:30:06.584Z,1.40
2023-03-16T19:32:33.489Z,1.20
2023-03-16T19:35:00.380Z,1.60
2023-03-16T19:37:30.101Z,1.20
2023-03-16T19:39:57.818Z,1.65
2023-03-16T19:42:24.629Z,1.42
2023-03-16T19:44:51.585Z,1.42
2023-03-16T19:47:27.253Z,1.65
2023-03-16T19:49:54.166Z,1.83
2023-03-16T19:52:21.708Z,2.00
2023-03-16T19:54:48.631Z,2.10
2023-03-16T19:57:16.979Z,2.05
2023-03-16T19:59:45.736Z,1.83
2023-03-16T20:02:23.747Z,2.00
2023-03-16T20:04:50.538Z,1.75
2023-03-16T20:07:17.445Z,2.67
2023-03-16T20:09:44.491Z,2.38
2023-03-16T20:12:19.391Z,2.22
2023-03-16T20:14:46.721Z,2.22
2023-03-16T20:17:15.114Z,1.73
2023-03-16T20:19:41.875Z,2.00
2023-03-16T20:22:19.255Z,1.90
2023-03-16T20:24:46.590Z,2.15
2023-03-16T20:27:13.596Z,1.73
2023-03-16T20:29:41.037Z,1.77
2023-03-16T20:32:16.887Z,1.60
2023-03-16T20:34:43.927Z,1.60
2023-03-16T20:37:23.831Z,1.70
2023-03-16T20:39:54.473Z,2.03
2023-03-16T20:42:31.678Z,2.15
2023-03-16T20:44:59.029Z,2.05
2023-03-16T20:47:26.724Z,2.58
2023-03-16T20:49:55.020Z,1.90
2023-03-16T20:52:23.371Z,1.70
2023-03-16T20:54:50.263Z,2.05
2023-03-16T20:57:19.750Z,2.13
2023-03-16T20:59:49.228Z,2.45
2023-03-16T21:02:33.901Z,2.20
2023-03-16T21:05:04.099Z,2.13
2023-03-16T21:07:31.890Z,1.70
2023-03-16T21:09:58.745Z,2.40
2023-03-16T21:12:31.507Z,2.20
2023-03-16T21:14:58.593Z,2.65
2023-03-16T21:17:29.010Z,2.08
2023-03-16T21:19:56.554Z,2.03
2023-03-16T21:22:26.095Z,1.52
2023-03-16T21:24:53.289Z,2.30
2023-03-16T21:27:33.399Z,2.03
2023-03-16T21:30:07.297Z,1.90
2023-03-16T21:32:34.611Z,1.98
2023-03-16T21:35:01.544Z,1.92
2023-03-16T21:37:30.370Z,1.98
2023-03-16T21:39:58.646Z,1.98
2023-03-16T21:42:27.111Z,1.88
2023-03-16T21:44:53.997Z,1.75
2023-03-16T21:47:23.628Z,1.58
2023-03-16T21:49:50.775Z,1.88
2023-03-16T21:52:22.636Z,1.92
2023-03-16T21:54:50.546Z,2.00
2023-03-16T21:57:17.652Z,2.10
2023-03-16T21:59:44.459Z,2.60
2023-03-16T22:02:24.968Z,2.40
2023-03-16T22:04:52.939Z,2.00
2023-03-16T22:07:20.835Z,2.08
2023-03-16T22:09:47.739Z,1.92
2023-03-16T22:12:14.637Z,2.00
2023-03-16T22:14:41.876Z,2.53
2023-03-16T22:17:18.911Z,2.15
2023-03-16T22:19:45.719Z,2.45
2023-03-16T22:22:14.899Z,2.30
2023-03-16T22:24:41.946Z,2.03
2023-03-16T22:27:17.749Z,2.13
2023-03-16T22:29:44.979Z,2.05
2023-03-16T22:32:15.616Z,2.30
2023-03-16T22:34:47.295Z,2.35
2023-03-16T22:37:17.009Z,2.08
2023-03-16T22:39:44.895Z,2.40
2023-03-16T22:42:32.051Z,2.15
2023-03-16T22:44:59.043Z,2.30
2023-03-16T22:47:27.589Z,2.10
2023-03-16T22:49:54.964Z,2.05
2023-03-16T22:52:25.279Z,2.65
2023-03-16T22:54:52.642Z,2.53
2023-03-16T22:57:19.611Z,2.38
2023-03-16T22:59:47.287Z,3.05
2023-03-16T23:02:15.057Z,2.40
2023-03-16T23:04:42.147Z,2.50
2023-03-16T23:07:12.673Z,2.28
2023-03-16T23:09:39.875Z,2.33
2023-03-16T23:12:19.318Z,2.53
2023-03-16T23:14:46.153Z,2.20
2023-03-16T23:17:19.896Z,2.00
2023-03-16T23:19:48.248Z,2.28
2023-03-16T23:22:15.491Z,2.10
2023-03-16T23:24:42.519Z,2.45
2023-03-16T23:27:20.236Z,2.30
2023-03-16T23:29:47.848Z,2.30
2023-03-16T23:32:17.026Z,2.60
2023-03-16T23:34:43.963Z,2.55
2023-03-16T23:37:11.378Z,2.42
2023-03-16T23:39:38.297Z,2.30
2023-03-16T23:42:05.565Z,2.38
2023-03-16T23:44:32.529Z,2.63
2023-03-16T23:46:59.815Z,2.90
2023-03-16T23:49:30.107Z,2.53
2023-03-16T23:51:57.860Z,2.28
2023-03-16T23:54:26.250Z,2.45
2023-03-16T23:56:53.240Z,2.58
2023-03-16T23:59:20.926Z,2.42
